Weather History for KHRX - July, 2013

Change the Weather History Date:

Tuesday, July 30, 2013

  Actual Average (KAMA) Record (KAMA)
Temperature  
Mean Temperature 78 °F 78 °F  
Max Temperature 90 °F 91 °F 104 °F (1969)
Min Temperature 66 °F 65 °F 55 °F (1971)
Degree Days  
Heating Degree Days 0 0  
Month to date heating degree days 0  
Since 1 June heating degree days 7  
Since 1 July heating degree days 0  
Cooling Degree Days 13 13  
Month to date cooling degree days 398  
Year to date cooling degree days 811  
Since 1 June cooling degree days 686  
Growing Degree Days 28 (Base 50)    
Moisture  
Dew Point 62 °F    
Average Humidity 58    
Maximum Humidity 83    
Minimum Humidity 37    
Precipitation  
Precipitation 0.00 in 0.11 in 2.19 in (1982)
Month to date precipitation 2.74  
Year to date precipitation 12.26  
Snow  
Snow 0.00 in 0.00 in T in (1996)
Month to date snowfall 0.0  
Since 1 June snowfall 0.0  
Since 1 July snowfall 0.0  
Snow Depth -    
Sea Level Pressure  
Sea Level Pressure 30.15 in    
Wind  
Wind Speed 12 mph (NE)    
Max Wind Speed 26 mph    
Max Gust Speed 33 mph    
Visibility 10 miles    
Events      
T = Trace of Precipitation, MM = Missing Value Source: NWS Daily Summary

Daily Weather History Graph

Daily Weather History Graph

Search for Another Location

Airport or City:

Trip Planner

Search our weather history database for the weather conditions in past years. The results will help you decide how hot, cold, wet, or windy it might be!

Date:

Astronomy

Jul. 30, 2013 Rise Set
Actual Time 6:57 AM CDT 8:53 PM CDT
Civil Twilight 6:29 AM CDT 9:21 PM CDT
Nautical Twilight 5:56 AM CDT 9:54 PM CDT
Astronomical Twilight 5:19 AM CDT 10:30 PM CDT
Moon 1:14 AM CDT (7/30) 3:16 PM CDT (7/30)
Length of Visible Light 14h 51m
Length of Day
13h 55m
Last Quarter, 41% of the Moon is Illuminated
Jul 30
Last Quarter
Aug 6
New
Aug 14
First Quarter
Aug 20
Full
Aug 28
Last Quarter

Hourly Weather History & Observations

Time (CDT) Temp. Heat Index Dew Point Humidity Pressure Visibility Wind Dir Wind Speed Gust Speed Precip Events Conditions
12:15 AM 76.3 °F - 62.6 °F 62% 30.00 in 10.0 mi South 12.7 mph 18.4 mph N/A   Clear
12:35 AM 76.1 °F - 62.6 °F 63% 30.00 in 10.0 mi South 13.8 mph - N/A   Clear
12:55 AM 75.6 °F - 62.2 °F 63% 30.01 in 10.0 mi South 11.5 mph - N/A   Clear
1:15 AM 77.0 °F - 59.4 °F 54% 30.04 in 10.0 mi SSW 13.8 mph 28.8 mph N/A   Clear
1:35 AM 78.6 °F - 58.3 °F 50% 30.04 in 10.0 mi SW 10.4 mph - N/A   Clear
1:55 AM 76.1 °F - 58.8 °F 55% 30.04 in 10.0 mi WNW 8.1 mph - N/A   Clear
2:15 AM 76.8 °F - 61.0 °F 58% 30.04 in 10.0 mi North 11.5 mph 20.7 mph N/A   Clear
2:35 AM 75.2 °F - 61.9 °F 63% 30.05 in 10.0 mi NNW 17.3 mph 20.7 mph N/A   Clear
2:55 AM 75.2 °F - 64.4 °F 69% 30.05 in 10.0 mi North 20.7 mph 27.6 mph N/A   Clear
3:15 AM 74.7 °F - 66.0 °F 74% 30.07 in 10.0 mi North 20.7 mph 33.4 mph N/A   Clear
3:35 AM 72.9 °F - 66.2 °F 80% 30.08 in 10.0 mi NNE 21.9 mph 29.9 mph N/A   Clear
3:55 AM 72.0 °F - 64.6 °F 77% 30.09 in 10.0 mi NNE 19.6 mph 33.4 mph N/A   Clear
4:15 AM 71.4 °F - 64.0 °F 77% 30.09 in 10.0 mi NNE 26.5 mph 33.4 mph N/A   Clear
4:35 AM 70.9 °F - 63.5 °F 77% 30.10 in 10.0 mi NE 20.7 mph 28.8 mph N/A   Clear
4:55 AM 70.9 °F - 63.3 °F 77% 30.11 in 10.0 mi NE 17.3 mph 21.9 mph N/A   Clear
5:15 AM 70.9 °F - 63.9 °F 78% 30.12 in 10.0 mi NE 12.7 mph - N/A   Clear
5:35 AM 70.7 °F - 61.9 °F 74% 30.12 in 10.0 mi ENE 13.8 mph 19.6 mph N/A   Clear
5:55 AM 69.4 °F - 61.2 °F 75% 30.13 in 10.0 mi ENE 9.2 mph - N/A   Clear
6:15 AM 69.1 °F - 61.7 °F 77% 30.13 in 10.0 mi ENE 9.2 mph - N/A   Clear
6:35 AM 68.4 °F - 61.7 °F 79% 30.14 in 10.0 mi ENE 6.9 mph - N/A   Clear
6:55 AM 67.6 °F - 61.2 °F 80% 30.15 in 10.0 mi NNE 4.6 mph - N/A   Clear
7:15 AM 66.4 °F - 61.2 °F 83% 30.16 in 10.0 mi NW 9.2 mph - N/A   Clear
7:35 AM 67.1 °F - 61.7 °F 83% 30.16 in 10.0 mi NNW 8.1 mph - N/A   Clear
7:55 AM 68.2 °F - 61.7 °F 80% 30.17 in 10.0 mi NNW 6.9 mph - N/A   Clear
8:15 AM 69.8 °F - 61.2 °F 74% 30.17 in 10.0 mi NNW 11.5 mph - N/A   Clear
8:35 AM 72.0 °F - 61.9 °F 70% 30.18 in 10.0 mi North 10.4 mph - N/A   Clear
8:55 AM 73.4 °F - 62.1 °F 68% 30.18 in 10.0 mi North 9.2 mph - N/A   Clear
9:15 AM 75.0 °F - 61.9 °F 64% 30.18 in 10.0 mi North 10.4 mph - N/A   Clear
9:35 AM 76.1 °F - 61.2 °F 60% 30.19 in 10.0 mi North 10.4 mph - N/A   Clear
9:55 AM 77.0 °F - 61.5 °F 59% 30.20 in 10.0 mi North 11.5 mph - N/A   Clear
10:15 AM 78.3 °F - 61.9 °F 57% 30.20 in 10.0 mi North 8.1 mph - N/A   Clear
10:35 AM 79.2 °F - 61.7 °F 55% 30.20 in 10.0 mi North 9.2 mph - N/A   Clear
10:55 AM 80.6 °F 81.5 °F 61.0 °F 51% 30.20 in 10.0 mi North 9.2 mph - N/A   Clear
11:15 AM 81.5 °F 82.1 °F 60.6 °F 49% 30.21 in 10.0 mi North 8.1 mph - N/A   Clear
11:55 AM 83.5 °F 83.7 °F 61.0 °F 46% 30.21 in 10.0 mi North 10.4 mph - N/A   Clear
12:15 PM 83.8 °F 84.3 °F 61.5 °F 47% 30.21 in 10.0 mi North 10.4 mph - N/A   Clear
12:35 PM 84.9 °F 85.0 °F 61.0 °F 44% 30.21 in 10.0 mi North 9.2 mph - N/A   Clear
1:15 PM 84.9 °F 85.6 °F 62.8 °F 47% 30.20 in 10.0 mi NE 8.1 mph - N/A   Clear
1:35 PM 86.2 °F 87.1 °F 63.0 °F 46% 30.19 in 10.0 mi NNE 8.1 mph 16.1 mph N/A   Clear
1:55 PM 85.6 °F 86.1 °F 62.2 °F 45% 30.19 in 10.0 mi North 10.4 mph - N/A   Clear
2:15 PM 87.1 °F 87.8 °F 62.4 °F 44% 30.18 in 10.0 mi NNE 9.2 mph - N/A   Clear
2:35 PM 87.8 °F 88.2 °F 62.2 °F 42% 30.18 in 10.0 mi North 10.4 mph - N/A   Clear
2:55 PM 88.0 °F 88.1 °F 61.7 °F 41% 30.18 in 10.0 mi NNE 9.2 mph - N/A   Clear
3:15 PM 88.7 °F 89.1 °F 61.9 °F 41% 30.18 in 10.0 mi NNE 5.8 mph - N/A   Clear
3:35 PM 88.9 °F 89.4 °F 62.2 °F 41% 30.17 in 10.0 mi NNE 10.4 mph 17.3 mph N/A   Clear
3:55 PM 89.6 °F 89.2 °F 60.4 °F 37% 30.17 in 10.0 mi ENE 4.6 mph - N/A   Clear
4:15 PM 90.0 °F 90.0 °F 61.0 °F 38% 30.17 in 10.0 mi NNE 6.9 mph - N/A   Clear
4:35 PM 89.4 °F 89.2 °F 60.4 °F 38% 30.17 in 10.0 mi NE 5.8 mph - N/A   Clear
4:55 PM 89.6 °F 89.5 °F 60.8 °F 38% 30.16 in 10.0 mi East 10.4 mph - N/A   Clear
5:15 PM 89.8 °F 90.0 °F 61.5 °F 39% 30.16 in 10.0 mi East 8.1 mph - N/A   Clear
5:35 PM 89.8 °F 89.7 °F 60.8 °F 38% 30.16 in 10.0 mi ENE 6.9 mph 16.1 mph N/A   Clear
5:55 PM 90.1 °F 90.2 °F 61.2 °F 38% 30.16 in 10.0 mi East 9.2 mph 16.1 mph N/A   Clear
6:15 PM 89.6 °F 89.2 °F 60.3 °F 37% 30.15 in 10.0 mi East 8.1 mph - N/A   Clear
6:35 PM 89.1 °F 88.5 °F 59.9 °F 37% 30.15 in 10.0 mi East 5.8 mph - N/A   Clear
6:55 PM 88.3 °F 88.1 °F 60.6 °F 39% 30.15 in 10.0 mi East 10.4 mph - N/A   Clear
7:15 PM 88.2 °F 87.8 °F 60.3 °F 39% 30.14 in 10.0 mi East 10.4 mph - N/A   Clear
7:35 PM 87.3 °F 87.2 °F 60.6 °F 41% 30.14 in 10.0 mi East 11.5 mph - N/A   Clear
7:55 PM 86.5 °F 86.5 °F 61.0 °F 42% 30.15 in 10.0 mi East 11.5 mph - N/A   Clear
8:15 PM 85.3 °F 85.7 °F 61.5 °F 45% 30.15 in 10.0 mi East 6.9 mph - N/A   Clear
8:35 PM 82.9 °F 83.8 °F 62.6 °F 50% 30.15 in 10.0 mi East 8.1 mph - N/A   Clear
8:55 PM 81.0 °F 82.2 °F 63.0 °F 54% 30.15 in 10.0 mi East 6.9 mph - N/A   Clear
9:15 PM 79.3 °F - 62.8 °F 57% 30.16 in 10.0 mi ESE 6.9 mph - N/A   Clear
9:35 PM 77.4 °F - 63.1 °F 61% 30.17 in 10.0 mi East 6.9 mph - N/A   Clear
9:55 PM 76.1 °F - 63.9 °F 66% 30.17 in 10.0 mi East 6.9 mph - N/A   Clear
10:15 PM 75.4 °F - 64.2 °F 68% 30.18 in 10.0 mi East 8.1 mph - N/A   Clear
10:35 PM 74.3 °F - 64.4 °F 71% 30.19 in 10.0 mi East 8.1 mph - N/A   Clear
10:55 PM 75.2 °F - 64.4 °F 69% 30.21 in 10.0 mi East 8.1 mph - N/A   Clear
11:15 PM 74.5 °F - 64.4 °F 71% 30.21 in 10.0 mi East 6.9 mph - N/A   Clear
11:35 PM 74.1 °F - 64.4 °F 72% 30.21 in 10.0 mi East 6.9 mph - N/A   Clear
11:55 PM 74.3 °F - 64.4 °F 71% 30.21 in 10.0 mi ESE 6.9 mph - N/A   Clear